createdAt,value
2018-06-29T00:00:21.320Z,15.37
2018-06-29T00:02:47.642Z,15.37
2018-06-29T00:05:13.958Z,15.36
2018-06-29T00:07:40.299Z,15.34
2018-06-29T00:10:06.607Z,15.34
2018-06-29T00:12:32.915Z,15.33
2018-06-29T00:14:59.229Z,15.31
2018-06-29T00:17:25.541Z,15.34
2018-06-29T00:19:51.848Z,15.35
2018-06-29T00:22:18.157Z,15.30
2018-06-29T00:24:44.533Z,15.29
2018-06-29T00:27:10.843Z,15.33
2018-06-29T00:29:37.156Z,15.30
2018-06-29T00:32:03.474Z,15.28
2018-06-29T00:34:29.782Z,15.30
2018-06-29T00:36:56.091Z,15.30
2018-06-29T00:39:22.430Z,15.29
2018-06-29T00:41:48.779Z,15.28
2018-06-29T00:44:15.102Z,15.28
2018-06-29T00:46:41.416Z,15.28
2018-06-29T00:49:07.723Z,15.28
2018-06-29T00:51:34.045Z,15.31
2018-06-29T00:54:00.351Z,15.28
2018-06-29T00:56:26.668Z,15.28
2018-06-29T00:58:52.987Z,15.26
2018-06-29T01:01:19.333Z,15.23
2018-06-29T01:03:45.644Z,15.27
2018-06-29T01:06:11.946Z,15.26
2018-06-29T01:08:38.261Z,15.26
2018-06-29T01:11:04.571Z,15.27
2018-06-29T01:13:30.884Z,15.24
2018-06-29T01:15:57.192Z,15.26
2018-06-29T01:18:23.583Z,15.27
2018-06-29T01:20:49.860Z,15.27
2018-06-29T01:23:16.170Z,15.27
2018-06-29T01:25:42.485Z,15.26
2018-06-29T01:28:08.799Z,15.30
2018-06-29T01:30:35.118Z,15.28
2018-06-29T01:33:01.459Z,15.25
2018-06-29T01:35:27.774Z,15.26
2018-06-29T01:37:54.085Z,15.28
2018-06-29T01:40:20.469Z,15.25
2018-06-29T01:42:46.784Z,15.22
2018-06-29T01:45:13.098Z,15.21
2018-06-29T01:47:39.434Z,15.26
2018-06-29T01:50:05.764Z,15.25
2018-06-29T01:52:32.169Z,15.24
2018-06-29T01:54:58.423Z,15.21
2018-06-29T01:57:24.730Z,15.23
2018-06-29T01:59:51.046Z,15.26
2018-06-29T02:02:17.379Z,15.27
2018-06-29T02:04:43.694Z,15.28
2018-06-29T02:07:10.036Z,15.27
2018-06-29T02:09:36.368Z,15.25
2018-06-29T02:12:02.681Z,15.26
2018-06-29T02:14:28.999Z,15.26
2018-06-29T02:16:55.308Z,15.29
2018-06-29T02:19:21.625Z,15.29
2018-06-29T02:21:47.938Z,15.30
2018-06-29T02:24:14.257Z,15.35
2018-06-29T02:26:40.566Z,15.34
2018-06-29T02:29:06.877Z,15.34
2018-06-29T02:31:33.194Z,15.36
2018-06-29T02:33:59.504Z,15.41
2018-06-29T02:36:25.823Z,15.44
2018-06-29T02:38:52.127Z,15.43
2018-06-29T02:41:18.485Z,15.39
2018-06-29T02:43:44.787Z,15.40
2018-06-29T02:46:11.091Z,15.30
2018-06-29T02:48:37.404Z,15.23
2018-06-29T02:51:03.725Z,15.21
2018-06-29T02:53:30.044Z,15.19
2018-06-29T02:55:56.347Z,15.18
2018-06-29T02:58:22.690Z,15.23
2018-06-29T03:00:49.003Z,15.22
2018-06-29T03:03:15.318Z,15.20
2018-06-29T03:05:41.624Z,15.19
2018-06-29T03:08:07.933Z,15.19
2018-06-29T03:10:34.245Z,15.16
2018-06-29T03:13:00.550Z,15.18
2018-06-29T03:15:26.861Z,15.15
2018-06-29T03:17:53.167Z,15.10
2018-06-29T03:20:19.479Z,15.12
2018-06-29T03:22:45.800Z,15.07
2018-06-29T03:25:12.129Z,15.08
2018-06-29T03:27:38.474Z,15.08
2018-06-29T03:30:04.787Z,15.11
2018-06-29T03:32:31.093Z,15.05
2018-06-29T03:34:57.411Z,15.10
2018-06-29T03:37:23.772Z,15.10
2018-06-29T03:39:50.091Z,15.13
2018-06-29T03:42:16.397Z,15.14
2018-06-29T03:44:42.714Z,15.11
2018-06-29T03:47:09.029Z,15.11
2018-06-29T03:49:35.413Z,15.08
2018-06-29T03:52:01.652Z,15.09
2018-06-29T03:54:27.981Z,15.08
2018-06-29T03:56:54.339Z,15.08
2018-06-29T03:59:20.687Z,15.09
2018-06-29T04:01:47.001Z,15.11
2018-06-29T04:04:13.316Z,15.11
2018-06-29T04:06:39.634Z,15.11
2018-06-29T04:09:05.951Z,15.10
2018-06-29T04:11:32.303Z,15.11
2018-06-29T04:13:58.612Z,15.08
2018-06-29T04:16:24.920Z,15.11
2018-06-29T04:18:51.240Z,15.07
2018-06-29T04:21:17.549Z,15.10
2018-06-29T04:23:43.878Z,15.14
2018-06-29T04:26:10.191Z,15.19
2018-06-29T04:28:36.501Z,15.26
2018-06-29T04:31:02.809Z,15.28
2018-06-29T04:33:29.124Z,15.36
2018-06-29T04:35:55.433Z,15.35
2018-06-29T04:38:21.784Z,15.35
2018-06-29T04:40:48.101Z,15.40
2018-06-29T04:43:14.407Z,15.40
2018-06-29T04:45:40.755Z,15.46
2018-06-29T04:48:07.076Z,15.41
2018-06-29T04:50:33.382Z,15.40
2018-06-29T04:52:59.701Z,15.34
2018-06-29T04:55:26.047Z,15.33
2018-06-29T04:57:52.351Z,15.30
2018-06-29T05:00:18.681Z,15.35
2018-06-29T05:02:45.005Z,15.36
2018-06-29T05:05:11.305Z,15.36
2018-06-29T05:07:37.638Z,15.31
2018-06-29T05:10:03.936Z,15.27
2018-06-29T05:12:30.224Z,15.31
2018-06-29T05:14:56.523Z,15.31
2018-06-29T05:17:22.813Z,15.28
2018-06-29T05:19:49.137Z,15.26
2018-06-29T05:22:15.455Z,15.25
2018-06-29T05:24:41.772Z,15.25
2018-06-29T05:27:08.065Z,15.29
2018-06-29T05:29:34.363Z,15.29
2018-06-29T05:32:00.671Z,15.30
2018-06-29T05:34:27.017Z,15.30
2018-06-29T05:36:53.348Z,15.29
2018-06-29T05:39:19.663Z,15.31
2018-06-29T05:41:46.032Z,15.30
2018-06-29T05:44:12.274Z,15.34
2018-06-29T05:46:38.603Z,15.37
2018-06-29T05:49:04.897Z,15.39
2018-06-29T05:51:31.206Z,15.39
2018-06-29T05:53:57.499Z,15.48
2018-06-29T05:56:23.790Z,15.55
2018-06-29T05:58:50.109Z,15.58
2018-06-29T06:01:16.409Z,15.59
2018-06-29T06:03:42.700Z,15.58
2018-06-29T06:06:09.013Z,15.59
2018-06-29T06:08:35.314Z,15.59
2018-06-29T06:11:01.617Z,15.60
2018-06-29T06:13:27.971Z,15.58
2018-06-29T06:15:54.295Z,15.60
2018-06-29T06:18:20.590Z,15.64
2018-06-29T06:20:46.893Z,15.68
2018-06-29T06:23:13.207Z,15.71
2018-06-29T06:25:39.509Z,15.72
2018-06-29T06:28:05.805Z,15.74
2018-06-29T06:30:32.101Z,15.77
2018-06-29T06:32:58.398Z,15.78
2018-06-29T06:35:24.700Z,15.76
2018-06-29T06:37:51.024Z,15.77
2018-06-29T06:40:17.313Z,15.82
2018-06-29T06:42:43.609Z,15.82
2018-06-29T06:45:09.905Z,16.23
2018-06-29T06:47:36.200Z,16.30
2018-06-29T06:50:02.498Z,16.39
2018-06-29T06:52:28.792Z,16.46
2018-06-29T06:54:55.125Z,16.48
2018-06-29T06:57:21.421Z,16.31
2018-06-29T06:59:47.721Z,16.31
2018-06-29T07:02:14.042Z,16.28
2018-06-29T07:04:40.342Z,16.31
2018-06-29T07:07:06.645Z,16.40
2018-06-29T07:09:32.939Z,16.54
2018-06-29T07:11:59.233Z,16.51
2018-06-29T07:14:25.546Z,16.56
2018-06-29T07:16:51.854Z,16.55
2018-06-29T07:19:18.147Z,16.56
2018-06-29T07:21:44.442Z,16.56
2018-06-29T07:24:10.741Z,16.61
2018-06-29T07:26:37.038Z,16.67
2018-06-29T07:29:03.344Z,16.65
2018-06-29T07:31:29.639Z,16.70
2018-06-29T07:33:55.937Z,16.76
2018-06-29T07:36:24.686Z,16.87
2018-06-29T07:38:50.999Z,17.01
2018-06-29T07:41:17.303Z,17.19
2018-06-29T07:43:43.597Z,17.35
2018-06-29T07:46:09.952Z,17.42
2018-06-29T07:48:36.249Z,17.55
2018-06-29T07:51:02.548Z,17.55
2018-06-29T07:53:28.879Z,17.76
2018-06-29T07:55:55.176Z,17.96
2018-06-29T07:58:21.665Z,18.09
2018-06-29T08:00:47.942Z,18.29
2018-06-29T08:03:14.226Z,18.29
2018-06-29T08:05:40.574Z,18.24
2018-06-29T08:08:06.883Z,18.18
2018-06-29T08:10:33.232Z,18.09
2018-06-29T08:12:59.563Z,18.03
2018-06-29T08:15:25.871Z,17.96
2018-06-29T08:17:52.177Z,17.89
2018-06-29T08:20:18.565Z,17.84
2018-06-29T08:22:44.874Z,17.78
2018-06-29T08:25:11.213Z,17.83
2018-06-29T08:27:37.560Z,17.95
2018-06-29T08:30:03.900Z,18.06
2018-06-29T08:32:30.271Z,18.19
2018-06-29T08:34:56.579Z,18.23
2018-06-29T08:37:22.885Z,18.12
2018-06-29T08:39:49.231Z,18.10
2018-06-29T08:42:15.588Z,18.10
2018-06-29T08:44:41.932Z,18.10
2018-06-29T08:47:08.335Z,18.24
2018-06-29T08:49:34.614Z,18.39
2018-06-29T08:52:00.957Z,18.53
2018-06-29T08:54:27.320Z,18.52
2018-06-29T08:56:53.630Z,18.68
2018-06-29T08:59:19.967Z,18.95
2018-06-29T09:01:46.312Z,19.02
2018-06-29T09:04:12.686Z,19.06
2018-06-29T09:06:39.003Z,18.96
2018-06-29T09:09:05.339Z,18.97
2018-06-29T09:11:31.647Z,18.93
2018-06-29T09:13:57.983Z,18.84
2018-06-29T09:16:24.297Z,18.78
2018-06-29T09:18:50.631Z,18.71
2018-06-29T09:21:17.045Z,18.71
2018-06-29T09:23:43.389Z,18.68
2018-06-29T09:26:09.720Z,18.65
2018-06-29T09:28:36.028Z,18.72
2018-06-29T09:31:02.376Z,18.80
2018-06-29T09:33:28.721Z,18.84
2018-06-29T09:35:55.064Z,18.81
2018-06-29T09:38:21.460Z,18.83
2018-06-29T09:40:47.759Z,18.69
2018-06-29T09:43:14.096Z,18.61
2018-06-29T09:45:40.452Z,18.69
2018-06-29T09:48:06.951Z,18.67
2018-06-29T09:50:33.139Z,18.72
2018-06-29T09:52:59.486Z,18.77
2018-06-29T09:55:25.796Z,18.78
2018-06-29T09:57:52.173Z,18.81
2018-06-29T10:00:18.512Z,18.81
2018-06-29T10:02:44.836Z,18.80
2018-06-29T10:05:11.176Z,18.75
2018-06-29T10:07:37.516Z,18.81
2018-06-29T10:10:03.907Z,18.78
2018-06-29T10:12:30.252Z,18.82
2018-06-29T10:14:56.601Z,18.89
2018-06-29T10:17:22.902Z,18.81
2018-06-29T10:19:49.356Z,18.83
2018-06-29T10:22:15.690Z,18.94
2018-06-29T10:24:41.957Z,19.04
2018-06-29T10:27:08.317Z,19.13
2018-06-29T10:29:34.612Z,19.24
2018-06-29T10:32:00.947Z,19.28
2018-06-29T10:34:27.255Z,19.42
2018-06-29T10:36:53.636Z,19.42
2018-06-29T10:39:19.967Z,19.37
2018-06-29T10:41:46.264Z,19.19
2018-06-29T10:44:12.570Z,18.90
2018-06-29T10:46:38.879Z,18.52
2018-06-29T10:49:05.181Z,18.21
2018-06-29T10:51:31.487Z,18.03
2018-06-29T10:53:57.823Z,17.85
2018-06-29T10:56:24.191Z,17.78
2018-06-29T10:58:50.495Z,17.89
2018-06-29T11:01:16.799Z,17.88
2018-06-29T11:03:43.114Z,17.99
2018-06-29T11:06:09.422Z,18.12
2018-06-29T11:08:35.776Z,18.21
2018-06-29T11:11:02.184Z,18.21
2018-06-29T11:13:28.391Z,18.17
2018-06-29T11:15:54.769Z,18.20
2018-06-29T11:18:21.079Z,18.01
2018-06-29T11:20:47.425Z,17.88
2018-06-29T11:23:13.759Z,17.87
2018-06-29T11:25:40.086Z,17.93
2018-06-29T11:28:06.392Z,17.84
2018-06-29T11:30:32.729Z,17.88
2018-06-29T11:32:59.065Z,17.84
2018-06-29T11:35:25.370Z,17.70
2018-06-29T11:37:51.705Z,17.68
2018-06-29T11:40:18.044Z,17.58
2018-06-29T11:42:44.343Z,17.33
2018-06-29T11:45:10.640Z,17.20
2018-06-29T11:47:36.938Z,17.15
2018-06-29T11:50:03.283Z,17.14
2018-06-29T11:52:29.612Z,17.21
2018-06-29T11:54:55.893Z,17.27
2018-06-29T11:57:22.209Z,17.31
2018-06-29T11:59:48.485Z,17.39
2018-06-29T12:02:14.813Z,17.47
2018-06-29T12:04:41.115Z,17.61
2018-06-29T12:07:07.427Z,17.64
2018-06-29T12:09:33.722Z,17.61
2018-06-29T12:12:00.016Z,17.54
2018-06-29T12:14:26.315Z,17.32
2018-06-29T12:16:52.656Z,17.12
2018-06-29T12:19:18.952Z,16.81
2018-06-29T12:21:45.247Z,16.81
2018-06-29T12:24:11.627Z,16.70
2018-06-29T12:26:37.922Z,16.72
2018-06-29T12:29:04.261Z,16.92
2018-06-29T12:31:30.557Z,17.10
2018-06-29T12:33:56.857Z,17.31
2018-06-29T12:36:23.155Z,17.45
2018-06-29T12:38:49.459Z,17.62
2018-06-29T12:41:16.625Z,17.60
2018-06-29T12:43:42.928Z,17.60
2018-06-29T12:46:09.266Z,17.66
2018-06-29T12:48:35.528Z,17.62
2018-06-29T12:51:01.828Z,17.58
2018-06-29T12:53:28.124Z,17.60
2018-06-29T12:55:54.819Z,17.71
2018-06-29T12:58:21.044Z,17.80
2018-06-29T13:00:47.340Z,17.95
2018-06-29T13:03:13.626Z,17.79
2018-06-29T13:05:40.024Z,17.65
2018-06-29T13:08:06.234Z,17.59
2018-06-29T13:10:32.532Z,17.66
2018-06-29T13:12:58.824Z,17.82
2018-06-29T13:15:25.112Z,17.92
2018-06-29T13:17:51.434Z,18.03
2018-06-29T13:20:17.733Z,18.11
2018-06-29T13:22:44.029Z,18.19
2018-06-29T13:25:10.359Z,18.26
2018-06-29T13:27:36.624Z,18.41
2018-06-29T13:30:02.917Z,18.54
2018-06-29T13:32:29.207Z,18.63
2018-06-29T13:34:55.507Z,18.67
2018-06-29T13:37:21.798Z,18.81
2018-06-29T13:39:48.129Z,18.86
2018-06-29T13:42:14.426Z,18.77
2018-06-29T13:44:40.725Z,18.85
2018-06-29T13:47:07.017Z,18.89
2018-06-29T13:49:33.338Z,18.99
2018-06-29T13:51:59.665Z,19.08
2018-06-29T13:54:25.948Z,19.26
2018-06-29T13:56:52.270Z,19.36
2018-06-29T13:59:18.565Z,19.39
2018-06-29T14:01:44.865Z,19.42
2018-06-29T14:04:11.341Z,19.44
2018-06-29T14:06:37.641Z,19.37
2018-06-29T14:09:03.963Z,19.34
2018-06-29T14:11:30.259Z,19.35
2018-06-29T14:13:56.548Z,19.33
2018-06-29T14:16:22.856Z,19.42
2018-06-29T14:18:49.144Z,19.43
2018-06-29T14:21:15.462Z,19.32
2018-06-29T14:23:41.747Z,19.33
2018-06-29T14:26:08.037Z,19.23
2018-06-29T14:28:34.343Z,18.99
2018-06-29T14:31:00.636Z,18.90
2018-06-29T14:33:26.954Z,18.81
2018-06-29T14:35:53.252Z,18.82
2018-06-29T14:38:19.552Z,18.54
2018-06-29T14:40:45.855Z,18.29
2018-06-29T14:43:12.156Z,18.19
2018-06-29T14:45:38.488Z,18.13
2018-06-29T14:48:04.792Z,18.35
2018-06-29T14:50:31.088Z,18.41
2018-06-29T14:52:57.387Z,18.17
2018-06-29T14:55:23.684Z,18.10
2018-06-29T14:57:50.013Z,18.16
2018-06-29T15:00:16.307Z,18.30
2018-06-29T15:02:42.599Z,18.43
2018-06-29T15:05:08.905Z,18.50
2018-06-29T15:07:35.193Z,18.54
2018-06-29T15:10:01.518Z,18.61
2018-06-29T15:12:27.790Z,18.62
2018-06-29T15:14:54.107Z,18.64
2018-06-29T15:17:20.395Z,18.58
2018-06-29T15:19:46.721Z,18.55
2018-06-29T15:22:12.981Z,18.50
2018-06-29T15:24:39.285Z,18.52
2018-06-29T15:27:05.598Z,18.54
2018-06-29T15:29:31.923Z,18.58
2018-06-29T15:31:58.232Z,18.59
2018-06-29T15:34:24.584Z,18.58
2018-06-29T15:36:50.903Z,18.57
2018-06-29T15:39:17.203Z,18.55
2018-06-29T15:41:43.503Z,18.55
2018-06-29T15:44:09.795Z,18.52
2018-06-29T15:46:36.100Z,18.47
2018-06-29T15:49:02.401Z,18.38
2018-06-29T15:51:28.729Z,18.36
2018-06-29T15:53:55.025Z,18.33
2018-06-29T15:56:21.632Z,18.31
2018-06-29T15:58:47.827Z,18.37
2018-06-29T16:01:14.163Z,18.34
2018-06-29T16:03:40.466Z,18.34
2018-06-29T16:06:06.767Z,18.36
2018-06-29T16:08:33.102Z,18.35
2018-06-29T16:10:59.401Z,18.25
2018-06-29T16:13:25.695Z,18.23
2018-06-29T16:15:51.991Z,18.06
2018-06-29T16:18:18.277Z,17.96
2018-06-29T16:20:44.603Z,17.85
2018-06-29T16:23:10.944Z,17.71
2018-06-29T16:25:37.238Z,17.47
2018-06-29T16:28:03.540Z,17.16
2018-06-29T16:30:29.833Z,16.93
2018-06-29T16:32:56.129Z,16.76
2018-06-29T16:35:22.430Z,16.65
2018-06-29T16:37:48.737Z,16.54
2018-06-29T16:40:15.042Z,16.48
2018-06-29T16:42:41.334Z,16.47
2018-06-29T16:45:07.627Z,16.49
2018-06-29T16:47:33.989Z,16.55
2018-06-29T16:50:00.290Z,16.56
2018-06-29T16:52:26.591Z,16.54
2018-06-29T16:54:52.885Z,16.57
2018-06-29T16:57:19.177Z,16.63
2018-06-29T16:59:45.480Z,16.65
2018-06-29T17:02:11.776Z,16.68
2018-06-29T17:04:38.063Z,16.70
2018-06-29T17:07:04.385Z,16.74
2018-06-29T17:09:30.683Z,16.77
2018-06-29T17:11:57.002Z,16.85
2018-06-29T17:14:23.391Z,16.82
2018-06-29T17:16:49.680Z,16.83
2018-06-29T17:19:15.975Z,16.84
2018-06-29T17:21:42.267Z,16.78
2018-06-29T17:24:08.599Z,16.88
2018-06-29T17:26:34.898Z,16.84
2018-06-29T17:29:01.379Z,16.82
2018-06-29T17:31:27.500Z,16.81
2018-06-29T17:33:53.817Z,16.82
2018-06-29T17:36:20.090Z,16.81
2018-06-29T17:38:46.383Z,16.78
2018-06-29T17:41:12.679Z,16.79
2018-06-29T17:43:38.978Z,16.74
2018-06-29T17:46:05.326Z,16.68
2018-06-29T17:48:31.625Z,16.67
2018-06-29T17:50:57.921Z,16.66
2018-06-29T17:53:24.218Z,16.66
2018-06-29T17:55:50.549Z,16.66
2018-06-29T17:58:16.871Z,16.66
2018-06-29T18:00:43.210Z,16.63
2018-06-29T18:03:09.487Z,16.65
2018-06-29T18:05:35.806Z,16.64
2018-06-29T18:08:02.037Z,16.64
2018-06-29T18:10:28.329Z,16.61
2018-06-29T18:12:54.782Z,16.46
2018-06-29T18:15:21.039Z,16.29
2018-06-29T18:17:47.394Z,16.18
2018-06-29T18:20:13.629Z,16.14
2018-06-29T18:22:46.015Z,16.14
2018-06-29T18:25:06.254Z,16.13
2018-06-29T18:27:32.580Z,16.13
2018-06-29T18:29:58.916Z,16.14
2018-06-29T18:32:25.252Z,16.18
2018-06-29T18:34:51.607Z,16.24
2018-06-29T18:37:17.897Z,16.27
2018-06-29T18:39:44.190Z,16.30
2018-06-29T18:42:10.499Z,16.33
2018-06-29T18:44:36.778Z,16.38
2018-06-29T18:47:03.107Z,16.35
2018-06-29T18:49:29.443Z,16.36
2018-06-29T18:51:55.798Z,16.33
2018-06-29T18:54:22.125Z,16.37
2018-06-29T18:56:48.413Z,16.51
2018-06-29T18:59:14.747Z,16.40
2018-06-29T19:01:41.042Z,16.35
2018-06-29T19:04:07.445Z,16.34
2018-06-29T19:06:33.769Z,16.31
2018-06-29T19:09:00.084Z,16.33
2018-06-29T19:11:26.378Z,16.33
2018-06-29T19:13:52.710Z,16.35
2018-06-29T19:16:19.001Z,16.35
2018-06-29T19:18:45.321Z,16.34
2018-06-29T19:21:11.641Z,16.32
2018-06-29T19:23:37.931Z,16.31
2018-06-29T19:26:04.226Z,16.30
2018-06-29T19:28:30.516Z,16.30
2018-06-29T19:30:56.873Z,16.28
2018-06-29T19:33:23.238Z,16.28
2018-06-29T19:35:49.530Z,16.30
2018-06-29T19:38:15.846Z,16.31
2018-06-29T19:40:42.125Z,16.35
2018-06-29T19:43:08.419Z,16.37
2018-06-29T19:45:34.715Z,16.36
2018-06-29T19:48:01.068Z,16.37
2018-06-29T19:50:27.364Z,16.38
2018-06-29T19:52:53.716Z,16.39
2018-06-29T19:55:19.959Z,16.41
2018-06-29T19:57:46.251Z,16.42
2018-06-29T20:00:12.548Z,16.43
2018-06-29T20:02:38.849Z,16.44
2018-06-29T20:05:05.175Z,16.45
2018-06-29T20:07:31.456Z,16.46
2018-06-29T20:09:57.761Z,16.46
2018-06-29T20:12:24.059Z,16.46
2018-06-29T20:14:50.365Z,16.46
2018-06-29T20:17:16.654Z,16.46
2018-06-29T20:19:42.989Z,16.46
2018-06-29T20:22:09.293Z,16.50
2018-06-29T20:24:35.593Z,16.52
2018-06-29T20:27:01.965Z,16.51
2018-06-29T20:29:28.184Z,16.49
2018-06-29T20:31:54.495Z,16.49
2018-06-29T20:34:20.793Z,16.51
2018-06-29T20:36:47.083Z,16.48
2018-06-29T20:39:13.377Z,16.44
2018-06-29T20:41:39.680Z,16.43
2018-06-29T20:44:05.981Z,16.44
2018-06-29T20:46:32.329Z,16.46
2018-06-29T20:48:58.622Z,16.45
2018-06-29T20:51:24.909Z,16.45
2018-06-29T20:53:51.268Z,16.46
2018-06-29T20:56:17.517Z,16.44
2018-06-29T20:58:43.817Z,16.46
2018-06-29T21:01:10.138Z,16.48
2018-06-29T21:03:36.443Z,16.48
2018-06-29T21:06:02.732Z,16.45
2018-06-29T21:08:29.025Z,16.43
2018-06-29T21:10:55.392Z,16.45
2018-06-29T21:13:21.713Z,16.46
2018-06-29T21:15:48.005Z,16.49
2018-06-29T21:18:14.300Z,16.54
2018-06-29T21:20:40.608Z,16.57
2018-06-29T21:23:06.909Z,16.58
2018-06-29T21:25:33.206Z,16.57
2018-06-29T21:27:59.510Z,16.56
2018-06-29T21:30:25.801Z,16.56
2018-06-29T21:32:52.097Z,16.55
2018-06-29T21:35:18.393Z,16.55
2018-06-29T21:37:44.702Z,16.55
2018-06-29T21:40:10.999Z,16.53
2018-06-29T21:42:37.333Z,16.53
2018-06-29T21:45:03.595Z,16.55
2018-06-29T21:47:29.880Z,16.57
2018-06-29T21:49:56.173Z,16.59
2018-06-29T21:52:22.471Z,16.57
2018-06-29T21:54:48.762Z,16.61
2018-06-29T21:57:15.057Z,16.61
2018-06-29T21:59:41.345Z,16.59
2018-06-29T22:02:07.695Z,16.61
2018-06-29T22:04:34.000Z,16.62
2018-06-29T22:07:00.302Z,16.59
2018-06-29T22:09:26.609Z,16.55
2018-06-29T22:11:52.914Z,16.54
2018-06-29T22:14:19.217Z,16.55
2018-06-29T22:16:45.515Z,16.56
2018-06-29T22:19:11.817Z,16.56
2018-06-29T22:21:38.121Z,16.54
2018-06-29T22:24:04.452Z,16.54
2018-06-29T22:26:30.752Z,16.55
2018-06-29T22:28:57.060Z,16.55
2018-06-29T22:31:23.364Z,16.52
2018-06-29T22:33:49.663Z,16.50
2018-06-29T22:36:15.964Z,16.51
2018-06-29T22:38:42.257Z,16.52
2018-06-29T22:41:08.585Z,16.52
2018-06-29T22:43:34.872Z,16.54
2018-06-29T22:46:01.178Z,16.54
2018-06-29T22:48:27.476Z,16.53
2018-06-29T22:50:53.804Z,16.56
2018-06-29T22:53:20.095Z,16.58
2018-06-29T22:55:46.439Z,16.58
2018-06-29T22:58:12.741Z,16.58
2018-06-29T23:00:39.029Z,16.57
2018-06-29T23:03:05.377Z,16.58
2018-06-29T23:05:31.662Z,16.56
2018-06-29T23:07:57.995Z,16.57
2018-06-29T23:10:24.322Z,16.59
2018-06-29T23:12:50.649Z,16.61
2018-06-29T23:15:16.941Z,16.63
2018-06-29T23:17:45.467Z,16.63
2018-06-29T23:20:11.762Z,16.61
2018-06-29T23:22:38.076Z,16.61
2018-06-29T23:25:04.376Z,16.59
2018-06-29T23:27:30.667Z,16.58
2018-06-29T23:29:56.978Z,16.57
2018-06-29T23:32:23.280Z,16.59
2018-06-29T23:34:49.577Z,16.59
2018-06-29T23:37:15.877Z,16.58
2018-06-29T23:39:42.189Z,16.58
2018-06-29T23:42:08.483Z,16.57
2018-06-29T23:44:34.784Z,16.57
2018-06-29T23:47:01.080Z,16.60
2018-06-29T23:49:27.386Z,16.60
2018-06-29T23:51:53.680Z,16.62
2018-06-29T23:54:20.015Z,16.64
2018-06-29T23:56:46.331Z,16.66
2018-06-29T23:59:12.629Z,16.65
